Terminal Aerodrome Forecast
Issued by NWS Wichita, KS

Home | Current Version | Previous Version | Text Only | Print | Product List | Glossary On
Versions: 1 2 3 4 5 6 7 8 9 10 11 12 13 14 15 16 17 18 19 20 21 22 23 24 25 26 27 28
000
FTUS43 KICT 191120
TAFICT
TAF
KICT 191120Z 1912/2012 VRB04KT 5SM BR OVC004
      TEMPO 1912/1915 2SM BR VV002
     FM191800 18005KT 5SM BR OVC007
     FM192100 18005KT P6SM BKN012
     FM200300 19005KT 3SM BR BKN015=

USA.gov is the U.S. government's official web portal to all federal, state and local government web resources and services.